Cairo, Illinois
Current Conditions -  °F | °C
As of 3:15 AM on Tuesday 21 Oct 2014 (Local Time) from KCIR Reporting Station
Moderate Fog Moderate Fog  
Wind Chill: 47°   Ceiling: 200
Heat Index: 47°   Visibility: 0.25mi
Dew Point: 45°   Wind: 0mph
Humidity: 92%   Direction: NA
Pressure: 30.03"   Gusts: NA
Location:  37.01°N, 89.18°W
Report Text: KCIR 210815Z AUTO 00000KT 1/4SM FG VV002 09/07 A3003 RMK AO2 T00860073
Loading
Personal Weather Stations






























Interactive Weather Map
Tropical Storm Tracking
New forecast layout! Learn more

10-Day Weather Forecast

Advertisements
Track Severe Weather on mobile